Time;durP1;ratioP1;P1;durP2;ratioP2;P2;SDS_P1;SDS_P2;PMS_P1;PMS_P2;Temp;Humidity;BMP_temperature;BMP_pressure;BME280_temperature;BME280_humidity;BME280_pressure;Samples;Min_cycle;Max_cycle;Signal;HPM_P1;HPM_P2
2023/01/21 00:01:20;;;;;;;4.68;3.25;;;;;;;0.41;100.00;99795.75;5159782;27;20054;-63
2023/01/21 00:03:47;;;;;;;2.92;2.38;;;;;;;0.20;100.00;99794.28;5159591;27;20051;-65
2023/01/21 00:06:14;;;;;;;7.63;3.13;;;;;;;0.12;100.00;99786.81;5159262;27;20047;-64
2023/01/21 00:08:40;;;;;;;3.05;2.75;;;;;;;0.14;100.00;99779.25;5159411;27;20050;-65
2023/01/21 00:11:07;;;;;;;5.97;3.00;;;;;;;0.21;100.00;99767.06;5159436;27;20054;-63
2023/01/21 00:13:35;;;;;;;4.13;3.13;;;;;;;0.25;100.00;99753.03;5159382;27;20050;-65
2023/01/21 00:16:01;;;;;;;3.97;3.03;;;;;;;0.20;100.00;99743.88;5159114;27;20050;-67
2023/01/21 00:18:27;;;;;;;3.20;2.90;;;;;;;0.23;100.00;99737.94;5159133;27;20331;-66
2023/01/21 00:20:54;;;;;;;4.30;3.38;;;;;;;0.44;100.00;99725.06;5159035;27;20053;-66
2023/01/21 00:23:20;;;;;;;4.65;3.20;;;;;;;0.34;100.00;99733.25;5159356;27;20404;-63
2023/01/21 00:25:47;;;;;;;4.90;3.80;;;;;;;0.35;100.00;99737.56;5158977;27;20053;-67
2023/01/21 00:28:13;;;;;;;5.03;3.70;;;;;;;0.14;100.00;99739.63;5159525;27;20046;-63
2023/01/21 00:30:40;;;;;;;4.75;3.42;;;;;;;0.43;100.00;99736.97;5158879;27;20061;-67
2023/01/21 00:33:07;;;;;;;3.45;3.03;;;;;;;0.30;100.00;99726.81;5158851;27;20050;-65
2023/01/21 00:35:33;;;;;;;3.25;2.95;;;;;;;0.15;100.00;99737.72;5159208;27;20057;-66
2023/01/21 00:38:00;;;;;;;6.18;4.10;;;;;;;0.29;100.00;99724.41;5158832;27;20046;-65
2023/01/21 00:40:26;;;;;;;3.95;3.55;;;;;;;0.32;100.00;99723.81;5158948;27;20049;-67
2023/01/21 00:42:53;;;;;;;5.00;3.60;;;;;;;0.39;100.00;99718.91;5158772;27;20110;-63
2023/01/21 00:45:19;;;;;;;4.13;3.25;;;;;;;0.25;100.00;99704.47;5159118;27;20042;-67
2023/01/21 00:47:46;;;;;;;4.20;3.80;;;;;;;0.23;100.00;99700.19;5158790;27;20201;-63
2023/01/21 00:50:12;;;;;;;4.97;3.60;;;;;;;0.24;100.00;99690.19;5158652;27;20114;-65
2023/01/21 00:52:38;;;;;;;3.90;3.05;;;;;;;0.21;100.00;99677.28;5158576;27;20447;-65
2023/01/21 00:55:06;;;;;;;5.15;3.72;;;;;;;0.30;100.00;99672.88;5159092;27;20102;-64
2023/01/21 00:57:32;;;;;;;4.07;3.58;;;;;;;0.37;100.00;99669.84;5158504;27;20118;-66
2023/01/21 00:59:58;;;;;;;5.45;3.90;;;;;;;0.40;100.00;99664.69;5158980;27;20439;-64
2023/01/21 01:02:24;;;;;;;5.20;3.38;;;;;;;0.33;100.00;99675.00;5158331;27;20106;-65
2023/01/21 01:04:50;;;;;;;4.15;3.15;;;;;;;0.42;100.00;99661.69;5158377;27;20118;-65
2023/01/21 01:07:17;;;;;;;3.63;3.33;;;;;;;0.37;100.00;99662.56;5158717;27;20053;-66
2023/01/21 01:09:43;;;;;;;3.33;3.03;;;;;;;0.32;100.00;99659.91;5158298;27;20050;-66
2023/01/21 01:12:10;;;;;;;2.75;2.45;;;;;;;0.19;100.00;99663.25;5158540;27;20115;-64
2023/01/21 01:14:36;;;;;;;3.13;2.80;;;;;;;0.37;100.00;99651.78;5158218;27;20093;-67
2023/01/21 01:17:03;;;;;;;4.07;3.60;;;;;;;0.32;100.00;99641.03;5158503;27;20483;-63
2023/01/21 01:19:29;;;;;;;4.13;3.05;;;;;;;0.17;100.00;99646.59;5158289;27;20057;-66
2023/01/21 01:21:55;;;;;;;3.92;3.25;;;;;;;0.60;100.00;99623.22;5158475;27;20042;-63
2023/01/21 01:24:22;;;;;;;3.58;2.67;;;;;;;0.38;100.00;99615.63;5158121;27;20066;-67
2023/01/21 01:26:48;;;;;;;4.65;4.05;;;;;;;0.43;100.00;99606.66;5157967;27;20073;-63
2023/01/21 01:29:15;;;;;;;4.82;3.75;;;;;;;0.25;100.00;99600.09;5158018;27;20441;-67
2023/01/21 01:31:42;;;;;;;3.22;2.92;;;;;;;0.15;100.00;99597.53;5158264;27;20121;-65
2023/01/21 01:34:09;;;;;;;4.05;3.60;;;;;;;0.19;100.00;99583.16;5158087;27;20051;-64
2023/01/21 01:36:35;;;;;;;4.47;4.00;;;;;;;0.30;100.00;99574.97;5157916;27;20047;-67
2023/01/21 01:39:01;;;;;;;5.13;3.97;;;;;;;0.31;100.00;99560.41;5158143;27;20053;-64
2023/01/21 01:41:29;;;;;;;4.07;3.67;;;;;;;0.46;100.00;99566.41;5157829;27;20475;-66
2023/01/21 01:43:57;;;;;;;3.30;3.00;;;;;;;0.28;100.00;99561.78;5158312;27;20324;-66
2023/01/21 01:46:26;;;;;;;3.70;3.35;;;;;;;0.32;100.00;99556.63;5157941;27;20058;-65
2023/01/21 01:48:58;;;;;;;3.80;3.00;;;;;;;0.19;100.00;99560.81;5158202;27;20417;-67
2023/01/21 01:51:30;;;;;;;2.25;2.05;;;;;;;0.29;100.00;99558.00;5157720;27;20057;-63
2023/01/21 01:53:57;;;;;;;3.63;3.33;;;;;;;0.49;100.00;99569.63;5158240;27;20057;-66
2023/01/21 01:56:23;;;;;;;4.38;3.28;;;;;;;0.20;100.00;99562.41;5158001;27;20059;-66
2023/01/21 01:58:50;;;;;;;3.05;2.70;;;;;;;0.46;100.00;99550.22;5157884;27;20051;-64
2023/01/21 02:01:16;;;;;;;4.90;2.60;;;;;;;0.35;100.00;99542.56;5157751;27;20051;-64
2023/01/21 02:03:53;;;;;;;3.60;2.92;;;;;;;0.40;100.00;99543.31;5157611;27;20343;-67
2023/01/21 02:06:19;;;;;;;4.60;4.18;;;;;;;0.20;100.00;99530.03;5158013;27;20336;-64
2023/01/21 02:08:47;;;;;;;3.65;2.75;;;;;;;0.28;100.00;99531.31;5157680;27;20316;-63
2023/01/21 02:11:14;;;;;;;4.07;3.67;;;;;;;0.30;100.00;99526.44;5157823;27;20330;-66
2023/01/21 02:13:43;;;;;;;8.63;3.47;;;;;;;0.12;100.00;99549.56;5157380;27;20073;-65
2023/01/21 02:16:33;;;;;;;3.63;3.20;;;;;;;0.25;100.00;99524.59;5157951;27;20050;-67
2023/01/21 02:19:19;;;;;;;3.83;3.40;;;;;;;0.17;100.00;99526.06;5157676;27;20050;-66
2023/01/21 02:21:59;;;;;;;4.05;3.03;;;;;;;0.19;100.00;99523.06;5157490;27;20051;-65
2023/01/21 02:25:10;;;;;;;4.05;3.28;;;;;;;0.30;100.00;99496.75;5157746;27;20307;-65
2023/01/21 02:27:46;;;;;;;5.35;4.35;;;;;;;0.25;100.00;99516.50;5157283;27;20331;-64
2023/01/21 02:30:41;;;;;;;4.90;3.30;;;;;;;0.32;100.00;99514.28;5157563;27;20287;-65
2023/01/21 02:33:33;;;;;;;4.82;3.63;;;;;;;0.32;100.00;99494.59;5157605;27;20055;-64
2023/01/21 02:36:12;;;;;;;4.32;3.58;;;;;;;0.28;100.00;99496.28;5157214;27;20051;-63
2023/01/21 02:38:45;;;;;;;5.70;3.78;;;;;;;0.27;100.00;99498.16;5158065;27;20046;-64
2023/01/21 02:41:22;;;;;;;4.40;3.45;;;;;;;0.15;100.00;99500.47;5160667;27;20055;-64
2023/01/21 02:43:56;;;;;;;4.72;4.07;;;;;;;0.16;100.00;99485.88;5160615;27;20046;-63
2023/01/21 02:46:33;;;;;;;4.40;3.55;;;;;;;0.26;100.00;99482.25;5160795;27;20055;-64
2023/01/21 02:49:06;;;;;;;3.53;3.22;;;;;;;0.44;100.00;99490.38;5160789;27;20047;-66
2023/01/21 02:51:34;;;;;;;4.82;4.18;;;;;;;0.30;100.00;99502.16;5160863;27;20050;-66
2023/01/21 02:54:11;;;;;;;4.25;3.45;;;;;;;0.36;100.00;99474.84;5160505;27;20076;-67
2023/01/21 02:56:37;;;;;;;5.65;4.47;;;;;;;0.26;100.00;99477.66;5160544;27;20050;-66
2023/01/21 02:59:05;;;;;;;4.93;4.40;;;;;;;0.27;100.00;99482.00;5160460;27;20419;-66
2023/01/21 03:01:44;;;;;;;4.82;3.90;;;;;;;0.01;100.00;99476.09;5160587;27;20050;-66
2023/01/21 03:04:33;;;;;;;5.75;4.30;;;;;;;0.18;100.00;99457.53;5160719;27;20054;-65
2023/01/21 03:07:07;;;;;;;6.28;3.88;;;;;;;-0.05;100.00;99466.44;5160455;27;20046;-64
2023/01/21 03:09:35;;;;;;;5.22;4.00;;;;;;;0.20;100.00;99451.84;5160700;27;20315;-65
2023/01/21 03:12:13;;;;;;;5.25;4.20;;;;;;;0.24;100.00;99439.41;5160321;27;20061;-66
2023/01/21 03:17:37;;;;;;;5.93;4.55;;;;;;;0.25;100.00;99465.28;5160284;27;20115;-64
2023/01/21 03:20:10;;;;;;;5.28;4.13;;;;;;;0.36;100.00;99433.59;5160092;27;20051;-67
2023/01/21 03:22:37;;;;;;;4.20;3.78;;;;;;;0.43;100.00;99423.22;5160350;27;20059;-66
2023/01/21 03:25:06;;;;;;;4.40;3.67;;;;;;;0.20;100.00;99438.38;5160044;27;20100;-66
2023/01/21 03:27:34;;;;;;;6.55;4.15;;;;;;;0.32;100.00;99427.97;5160411;27;20061;-65
2023/01/21 03:30:07;;;;;;;5.20;4.03;;;;;;;0.15;100.00;99427.66;5160058;27;20046;-64
2023/01/21 03:32:35;;;;;;;6.25;4.75;;;;;;;0.29;100.00;99431.25;5160272;27;20459;-65
2023/01/21 03:35:05;;;;;;;5.53;4.57;;;;;;;0.38;100.00;99437.59;5159909;27;20133;-65
2023/01/21 03:37:39;;;;;;;6.00;4.60;;;;;;;0.28;100.00;99442.34;5159825;27;20047;-65
2023/01/21 03:40:14;;;;;;;5.72;4.53;;;;;;;0.25;100.00;99443.72;5159886;27;20054;-64
2023/01/21 03:42:41;;;;;;;7.22;4.43;;;;;;;0.31;100.00;99441.75;5159640;27;20500;-64
2023/01/21 03:45:09;;;;;;;6.45;4.72;;;;;;;0.08;100.00;99433.41;5159881;27;20060;-63
2023/01/21 03:47:37;;;;;;;7.47;5.43;;;;;;;0.42;100.00;99435.13;5159826;27;20050;-65
2023/01/21 03:50:10;;;;;;;8.45;4.72;;;;;;;0.40;100.00;99438.13;5159515;27;20053;-64
2023/01/21 03:52:39;;;;;;;8.10;4.57;;;;;;;0.60;100.00;99417.31;5159662;27;20050;-65
2023/01/21 03:55:07;;;;;;;8.82;5.38;;;;;;;0.42;100.00;99427.03;5159415;27;20057;-64
2023/01/21 03:57:33;;;;;;;8.27;5.45;;;;;;;0.65;100.00;99420.75;5159504;27;20047;-61
2023/01/21 03:59:59;;;;;;;64.40;7.78;;;;;;;0.46;100.00;99418.06;5159908;27;20047;-65
2023/01/21 04:02:25;;;;;;;8.60;4.85;;;;;;;0.27;100.00;99419.97;5159280;27;20061;-62
2023/01/21 04:04:52;;;;;;;5.97;4.78;;;;;;;0.41;100.00;99409.25;5159599;27;20099;-65
2023/01/21 04:07:19;;;;;;;8.95;5.28;;;;;;;0.53;100.00;99406.09;5159417;27;20046;-63
2023/01/21 04:09:45;;;;;;;7.57;5.55;;;;;;;0.25;100.00;99413.25;5159210;27;20047;-63
2023/01/21 04:12:12;;;;;;;7.20;4.50;;;;;;;0.45;100.00;99400.28;5159467;27;20416;-64
2023/01/21 04:14:38;;;;;;;11.77;5.32;;;;;;;0.34;100.00;99425.78;5159196;27;20448;-64
2023/01/21 04:17:04;;;;;;;7.28;6.25;;;;;;;0.50;100.00;99410.22;5159475;27;20413;-63
2023/01/21 04:19:31;;;;;;;12.88;5.63;;;;;;;0.42;100.00;99429.72;5159288;27;20057;-63
2023/01/21 04:21:57;;;;;;;13.65;5.22;;;;;;;0.41;100.00;99387.69;5159485;27;20057;-63
2023/01/21 04:24:24;;;;;;;9.38;5.20;;;;;;;0.45;100.00;99407.56;5159113;27;20088;-63
2023/01/21 04:26:50;;;;;;;11.70;5.38;;;;;;;0.50;100.00;99406.69;5159492;27;20050;-64
2023/01/21 04:29:17;;;;;;;7.70;4.88;;;;;;;0.57;100.00;99401.75;5158922;27;20300;-62
2023/01/21 04:31:44;;;;;;;10.27;5.18;;;;;;;0.56;100.00;99403.63;5158741;27;20403;-63
2023/01/21 04:34:10;;;;;;;13.60;5.75;;;;;;;0.46;100.00;99407.25;5158996;27;20051;-63
2023/01/21 04:36:36;;;;;;;13.25;6.05;;;;;;;0.44;100.00;99414.06;5158979;27;20369;-62
2023/01/21 04:39:03;;;;;;;8.52;5.20;;;;;;;0.48;100.00;99412.38;5159123;27;20376;-66
2023/01/21 04:41:30;;;;;;;12.20;6.30;;;;;;;0.43;100.00;99399.78;5158871;27;20134;-62
2023/01/21 04:43:56;;;;;;;21.17;5.95;;;;;;;0.46;100.00;99404.56;5159006;27;20396;-65
2023/01/21 04:46:22;;;;;;;11.90;6.03;;;;;;;0.63;100.00;99395.16;5158526;27;20050;-62
2023/01/21 04:48:48;;;;;;;8.65;6.05;;;;;;;0.40;100.00;99405.75;5159118;27;20122;-65
2023/01/21 04:51:15;;;;;;;12.30;5.85;;;;;;;0.61;100.00;99400.84;5158653;27;20061;-62
2023/01/21 04:53:41;;;;;;;16.92;6.93;;;;;;;0.64;100.00;99412.97;5159105;27;20320;-66
2023/01/21 04:56:07;;;;;;;13.52;6.20;;;;;;;0.57;100.00;99401.75;5158527;27;20053;-63
2023/01/21 04:58:34;;;;;;;11.63;6.93;;;;;;;0.60;100.00;99418.16;5158517;27;20050;-65
2023/01/21 05:01:00;;;;;;;14.25;8.18;;;;;;;0.56;100.00;99419.81;5158445;27;20046;-63
2023/01/21 05:03:27;;;;;;;12.75;5.75;;;;;;;0.51;100.00;99424.50;5157616;27;20058;-65
2023/01/21 05:05:53;;;;;;;6.78;4.75;;;;;;;0.94;100.00;99423.28;5158519;27;20047;-63
2023/01/21 05:08:19;;;;;;;19.85;8.95;;;;;;;0.57;100.00;99431.44;5158537;27;20051;-64
2023/01/21 05:10:46;;;;;;;14.38;7.10;;;;;;;0.90;100.00;99437.66;5158682;27;20126;-64
2023/01/21 05:13:12;;;;;;;20.00;6.55;;;;;;;0.84;100.00;99439.63;5158398;27;20055;-64
2023/01/21 05:15:39;;;;;;;22.25;7.22;;;;;;;0.73;100.00;99438.16;5158647;27;20046;-65
2023/01/21 05:18:05;;;;;;;11.38;5.85;;;;;;;0.76;100.00;99442.19;5158151;27;20057;-66
2023/01/21 05:20:31;;;;;;;15.25;5.68;;;;;;;0.90;100.00;99443.03;5158703;27;20323;-63
2023/01/21 05:22:59;;;;;;;27.88;8.57;;;;;;;0.57;100.00;99461.91;5158027;27;20050;-64
2023/01/21 05:25:25;;;;;;;23.27;8.32;;;;;;;0.68;100.00;99449.84;5158603;27;20047;-63
2023/01/21 05:27:52;;;;;;;20.25;6.93;;;;;;;0.85;100.00;99452.03;5158098;27;20047;-64
2023/01/21 05:30:19;;;;;;;17.38;6.80;;;;;;;0.93;100.00;99435.19;5158045;27;20060;-64
2023/01/21 05:32:50;;;;;;;18.38;6.55;;;;;;;0.78;100.00;99446.22;5158278;27;20075;-64
2023/01/21 05:35:18;;;;;;;27.15;7.03;;;;;;;0.47;100.00;99454.75;5158110;27;20305;-67
2023/01/21 05:37:46;;;;;;;19.67;7.55;;;;;;;0.90;100.00;99445.75;5158158;27;20059;-66
2023/01/21 05:40:13;;;;;;;18.73;7.10;;;;;;;0.72;100.00;99452.78;5157872;27;20434;-62
2023/01/21 05:42:40;;;;;;;23.55;7.30;;;;;;;0.88;100.00;99456.84;5158098;27;20119;-64
2023/01/21 05:45:07;;;;;;;21.30;6.50;;;;;;;0.98;100.00;99457.78;5157825;27;20050;-63
2023/01/21 05:47:33;;;;;;;35.97;7.10;;;;;;;0.85;100.00;99473.63;5158194;27;20074;-62
2023/01/21 05:50:00;;;;;;;47.25;8.68;;;;;;;0.88;100.00;99481.13;5157833;27;20051;-64
2023/01/21 05:52:26;;;;;;;21.35;7.90;;;;;;;1.05;100.00;99477.91;5158190;27;20047;-65
2023/01/21 05:54:52;;;;;;;29.95;6.00;;;;;;;0.85;100.00;99495.22;5157992;27;20057;-63
2023/01/21 05:57:18;;;;;;;32.55;8.00;;;;;;;1.13;100.00;99488.06;5157651;27;20405;-65
2023/01/21 05:59:45;;;;;;;50.08;9.13;;;;;;;1.10;100.00;99490.53;5157769;27;20055;-63
2023/01/21 06:02:11;;;;;;;19.77;7.95;;;;;;;0.97;100.00;99488.56;5157527;27;20408;-66
2023/01/21 06:04:37;;;;;;;15.10;7.57;;;;;;;1.11;100.00;99494.84;5157768;27;20107;-62
2023/01/21 06:07:04;;;;;;;23.00;8.55;;;;;;;1.16;100.00;99502.84;5157748;27;20047;-66
2023/01/21 06:09:30;;;;;;;37.97;7.80;;;;;;;1.06;100.00;99500.31;5157840;27;20053;-65
2023/01/21 06:11:56;;;;;;;31.33;8.43;;;;;;;1.21;100.00;99502.00;5157601;27;20046;-63
2023/01/21 06:14:23;;;;;;;38.83;8.63;;;;;;;1.25;100.00;99506.50;5160936;27;20073;-64
2023/01/21 06:16:49;;;;;;;24.42;9.27;;;;;;;1.24;100.00;99501.41;5161132;27;20047;-65
2023/01/21 06:19:15;;;;;;;25.98;8.35;;;;;;;1.26;100.00;99500.00;5161436;27;20042;-65
2023/01/21 06:21:41;;;;;;;29.17;8.82;;;;;;;1.12;100.00;99512.66;5161034;27;20114;-64
2023/01/21 06:24:08;;;;;;;37.03;8.18;;;;;;;1.03;100.00;99523.28;5160933;27;20341;-64
2023/01/21 06:26:34;;;;;;;37.33;9.13;;;;;;;0.88;100.00;99512.72;5160966;27;20471;-62
2023/01/21 06:29:01;;;;;;;23.23;5.90;;;;;;;1.30;100.00;99511.00;5160917;27;20076;-65
2023/01/21 06:31:27;;;;;;;49.97;9.77;;;;;;;1.14;100.00;99515.88;5161195;27;20106;-62
2023/01/21 06:33:53;;;;;;;21.25;7.38;;;;;;;1.30;100.00;99513.69;5160930;27;20055;-65
2023/01/21 06:36:19;;;;;;;24.92;7.65;;;;;;;1.33;100.00;99499.59;5160966;27;20079;-62
2023/01/21 06:38:45;;;;;;;31.25;9.30;;;;;;;1.27;100.00;99498.13;5160691;27;20050;-67
2023/01/21 06:41:12;;;;;;;25.15;8.20;;;;;;;1.40;100.00;99495.44;5161166;27;20058;-63
2023/01/21 06:43:39;;;;;;;22.85;8.10;;;;;;;1.52;100.00;99494.97;5160586;27;20051;-63
2023/01/21 06:46:05;;;;;;;90.78;12.65;;;;;;;1.09;100.00;99505.13;5161072;27;20046;-64
2023/01/21 06:48:31;;;;;;;31.50;9.10;;;;;;;1.12;100.00;99499.13;5160565;27;20059;-64
2023/01/21 06:50:59;;;;;;;25.85;8.10;;;;;;;1.15;100.00;99501.25;5160966;27;20396;-65
2023/01/21 06:53:25;;;;;;;24.90;8.90;;;;;;;1.25;100.00;99500.28;5160485;27;20430;-66
2023/01/21 06:55:51;;;;;;;31.10;9.43;;;;;;;1.12;100.00;99502.63;5160416;27;20050;-63
2023/01/21 06:58:18;;;;;;;45.38;9.15;;;;;;;1.11;100.00;99489.44;5160459;27;20078;-65
2023/01/21 07:00:45;;;;;;;30.65;9.13;;;;;;;1.32;100.00;99487.22;5160502;27;20118;-64
2023/01/21 07:03:11;;;;;;;42.95;9.40;;;;;;;1.24;100.00;99491.41;5160393;27;20051;-64
2023/01/21 07:05:37;;;;;;;19.38;8.02;;;;;;;1.36;100.00;99491.72;5160451;27;20047;-65
2023/01/21 07:08:04;;;;;;;32.42;9.35;;;;;;;1.31;100.00;99504.53;5160565;27;20051;-66
2023/01/21 07:10:30;;;;;;;23.52;9.73;;;;;;;1.24;100.00;99494.09;5160295;27;20047;-65
2023/01/21 07:12:57;;;;;;;30.15;9.60;;;;;;;1.34;100.00;99495.84;5160663;27;20070;-63
2023/01/21 07:15:23;;;;;;;23.38;8.18;;;;;;;1.25;100.00;99511.91;5160177;27;20051;-67
2023/01/21 07:17:51;;;;;;;22.98;9.90;;;;;;;1.21;100.00;99507.38;5160484;27;20137;-62
2023/01/21 07:20:17;;;;;;;27.00;8.77;;;;;;;1.16;100.00;99500.94;5160029;27;20051;-65
2023/01/21 07:22:43;;;;;;;32.78;9.25;;;;;;;1.23;100.00;99502.47;5159846;27;20472;-65
2023/01/21 07:25:09;;;;;;;48.78;9.80;;;;;;;1.25;100.00;99509.19;5159585;27;20050;-64
2023/01/21 07:27:36;;;;;;;28.88;9.57;;;;;;;1.66;100.00;99492.28;5160183;27;20327;-65
2023/01/21 07:30:03;;;;;;;25.63;9.00;;;;;;;1.59;100.00;99503.50;5160287;27;20071;-66
2023/01/21 07:32:30;;;;;;;21.40;10.02;;;;;;;1.33;100.00;99496.91;5159799;27;20055;-64
2023/01/21 07:34:57;;;;;;;98.55;16.27;;;;;;;1.38;100.00;99502.25;5160252;27;20404;-64
2023/01/21 07:37:23;;;;;;;22.10;8.57;;;;;;;1.24;100.00;99488.69;5159834;27;20043;-63
2023/01/21 07:39:49;;;;;;;29.25;8.13;;;;;;;1.18;100.00;99503.38;5160137;27;20057;-65
2023/01/21 07:42:15;;;;;;;23.08;7.80;;;;;;;1.10;100.00;99487.81;5159589;27;20050;-63
2023/01/21 07:44:42;;;;;;;42.95;8.77;;;;;;;1.31;100.00;99474.81;5160034;27;20069;-65
2023/01/21 07:47:09;;;;;;;28.20;8.30;;;;;;;1.42;100.00;99487.84;5159585;27;20427;-65
2023/01/21 07:49:36;;;;;;;36.00;9.68;;;;;;;1.32;100.00;99489.91;5160040;27;20047;-64
2023/01/21 07:52:02;;;;;;;24.23;10.30;;;;;;;1.28;100.00;99468.09;5159826;27;20052;-66
2023/01/21 07:54:29;;;;;;;31.63;9.35;;;;;;;1.52;100.00;99476.06;5159471;27;20054;-63
2023/01/21 07:56:55;;;;;;;38.58;10.45;;;;;;;1.34;100.00;99488.53;5159804;27;20311;-63
2023/01/21 07:59:21;;;;;;;26.70;8.38;;;;;;;1.44;100.00;99484.84;5159393;27;20054;-64
2023/01/21 08:01:47;;;;;;;29.35;9.93;;;;;;;1.24;100.00;99498.69;5159523;27;20050;-64
2023/01/21 08:04:14;;;;;;;24.58;8.98;;;;;;;1.37;100.00;99501.44;5159239;27;20058;-64
2023/01/21 08:06:40;;;;;;;29.15;9.40;;;;;;;1.33;100.00;99505.00;5159569;27;20047;-65
2023/01/21 08:09:07;;;;;;;25.23;9.45;;;;;;;1.56;100.00;99500.56;5159357;27;20077;-62
2023/01/21 08:11:34;;;;;;;20.80;8.57;;;;;;;1.49;100.00;99508.28;5159766;27;20316;-66
2023/01/21 08:14:00;;;;;;;16.67;7.38;;;;;;;1.55;100.00;99513.28;5159083;27;20055;-63
2023/01/21 08:16:26;;;;;;;20.35;8.20;;;;;;;1.57;100.00;99513.81;5159599;27;20049;-66
2023/01/21 08:18:53;;;;;;;24.67;10.07;;;;;;;1.65;100.00;99512.31;5158990;27;20061;-62
2023/01/21 08:21:19;;;;;;;16.15;7.75;;;;;;;1.77;100.00;99519.97;5159366;27;20043;-64
2023/01/21 08:23:46;;;;;;;23.58;9.52;;;;;;;1.62;100.00;99518.31;5159273;27;20137;-63
2023/01/21 08:26:13;;;;;;;16.17;8.02;;;;;;;1.50;100.00;99540.41;5159187;27;20065;-65
2023/01/21 08:28:39;;;;;;;26.10;10.13;;;;;;;1.47;100.00;99551.81;5159121;27;20057;-64
2023/01/21 08:31:07;;;;;;;24.17;10.75;;;;;;;1.53;100.00;99552.50;5159055;27;20107;-65
2023/01/21 08:33:34;;;;;;;22.80;8.57;;;;;;;1.63;100.00;99549.63;5159182;27;20057;-63
2023/01/21 08:36:00;;;;;;;18.95;9.13;;;;;;;1.53;100.00;99547.09;5158081;27;20050;-66
2023/01/21 08:38:27;;;;;;;24.40;8.70;;;;;;;1.50;100.00;99553.91;5158676;27;20071;-65
2023/01/21 08:40:56;;;;;;;19.20;8.30;;;;;;;1.46;100.00;99562.91;5158679;27;20050;-64
2023/01/21 08:43:22;;;;;;;22.13;8.48;;;;;;;1.48;100.00;99544.50;5159097;27;20054;-63
2023/01/21 08:45:48;;;;;;;17.05;8.85;;;;;;;1.52;100.00;99542.81;5158621;27;20050;-64
2023/01/21 08:48:14;;;;;;;19.48;8.40;;;;;;;1.44;100.00;99538.88;5158526;27;20349;-64
2023/01/21 08:50:40;;;;;;;14.63;7.68;;;;;;;1.54;100.00;99549.53;5158893;27;20166;-64
2023/01/21 08:53:09;;;;;;;15.00;7.45;;;;;;;1.59;100.00;99559.44;5158771;27;20110;-65
2023/01/21 08:55:35;;;;;;;20.85;8.40;;;;;;;1.54;100.00;99538.72;5158878;27;20077;-64
2023/01/21 08:58:02;;;;;;;17.15;7.45;;;;;;;1.70;100.00;99547.38;5158647;27;20371;-64
2023/01/21 09:00:28;;;;;;;22.23;8.93;;;;;;;1.55;100.00;99550.31;5158664;27;20051;-63
2023/01/21 09:02:55;;;;;;;21.00;9.02;;;;;;;1.61;100.00;99552.66;5158225;27;20103;-66
2023/01/21 09:05:21;;;;;;;22.85;9.10;;;;;;;1.53;100.00;99563.31;5158315;27;20046;-63
2023/01/21 09:07:47;;;;;;;24.38;7.63;;;;;;;1.75;100.00;99563.50;5158234;27;20104;-64
2023/01/21 09:10:59;;;;;;;31.35;8.70;;;;;;;1.79;100.00;99566.41;5158693;27;20046;-63
2023/01/21 09:13:06;;;;;;;20.33;8.63;;;;;;;1.69;100.00;99567.38;5158154;27;20054;-62
2023/01/21 09:15:37;;;;;;;16.80;7.47;;;;;;;1.62;100.00;99542.63;5158158;27;20065;-64
2023/01/21 09:18:03;;;;;;;19.15;8.25;;;;;;;1.71;100.00;99535.47;5158237;27;20353;-62
2023/01/21 09:20:30;;;;;;;22.95;7.78;;;;;;;1.74;100.00;99539.47;5158377;27;20042;-63
2023/01/21 09:22:57;;;;;;;18.30;7.82;;;;;;;1.57;100.00;99550.84;5158372;27;20114;-62
2023/01/21 09:25:23;;;;;;;31.02;9.50;;;;;;;1.41;100.00;99544.88;5158095;27;20075;-64
2023/01/21 09:27:49;;;;;;;33.50;8.88;;;;;;;1.64;100.00;99554.75;5158389;27;20050;-62
2023/01/21 09:30:17;;;;;;;20.00;8.07;;;;;;;1.49;100.00;99540.69;5157948;27;20061;-65
2023/01/21 09:32:43;;;;;;;18.35;8.63;;;;;;;1.52;100.00;99545.50;5158311;27;20054;-65
2023/01/21 09:35:09;;;;;;;27.50;7.28;;;;;;;1.45;100.00;99518.06;5157774;27;20066;-62
2023/01/21 09:37:37;;;;;;;24.83;8.07;;;;;;;1.30;100.00;99506.44;5158333;27;20371;-66
2023/01/21 09:40:04;;;;;;;29.15;9.10;;;;;;;1.64;100.00;99526.94;5157819;27;20054;-64
2023/01/21 09:42:32;;;;;;;22.80;8.02;;;;;;;1.64;100.00;99516.13;5157750;27;20057;-65
2023/01/21 09:45:00;;;;;;;27.85;9.98;;;;;;;1.70;100.00;99514.13;5157918;27;20043;-62
2023/01/21 09:47:32;;;;;;;26.08;10.43;;;;;;;1.57;100.00;99534.63;5157981;27;20061;-63
2023/01/21 09:50:04;;;;;;;41.92;10.32;;;;;;;1.40;100.00;99516.28;5161893;27;20050;-64
2023/01/21 09:52:38;;;;;;;22.20;8.63;;;;;;;1.61;100.00;99505.91;5161541;27;20058;-63
2023/01/21 09:55:11;;;;;;;26.45;9.77;;;;;;;1.64;100.00;99503.41;5161869;27;20101;-62
2023/01/21 09:57:59;;;;;;;16.65;7.68;;;;;;;1.79;100.00;99515.03;5161445;27;20047;-63
2023/01/21 10:00:36;;;;;;;20.73;7.97;;;;;;;1.54;100.00;99536.00;5158873;27;20058;-65
2023/01/21 10:03:16;;;;;;;18.05;7.63;;;;;;;1.52;100.00;99542.81;5161500;27;20106;-65
2023/01/21 10:06:01;;;;;;;22.02;7.47;;;;;;;1.65;100.00;99534.75;5161434;27;20055;-65
2023/01/21 10:08:31;;;;;;;;;;;;;;;1.54;100.00;99532.50;5161958;27;20051;-66
2023/01/21 10:11:11;;;;;;;22.20;8.23;;;;;;;1.85;100.00;99541.69;5161265;27;19923;-64
2023/01/21 10:14:12;;;;;;;24.70;9.32;;;;;;;1.70;100.00;99541.97;5161590;27;20050;-63
2023/01/21 10:16:45;;;;;;;17.65;6.28;;;;;;;1.45;100.00;99554.00;5161494;27;20043;-64
2023/01/21 10:19:16;;;;;;;20.15;8.68;;;;;;;1.55;100.00;99559.22;5161078;27;20046;-66
2023/01/21 10:21:49;;;;;;;19.33;9.05;;;;;;;1.68;100.00;99554.97;5161441;27;20051;-64
2023/01/21 10:24:22;;;;;;;28.13;9.93;;;;;;;1.61;100.00;99547.25;5161031;27;20059;-65
2023/01/21 10:26:51;;;;;;;23.48;8.50;;;;;;;1.60;100.00;99563.75;5161298;27;20049;-65
2023/01/21 10:29:21;;;;;;;23.25;10.43;;;;;;;1.64;100.00;99575.59;5160757;27;20057;-65
2023/01/21 10:31:58;;;;;;;25.05;10.23;;;;;;;1.87;100.00;99571.94;5160834;27;20042;-64
2023/01/21 10:34:29;;;;;;;27.27;10.07;;;;;;;1.69;100.00;99594.41;5161176;27;20114;-64
2023/01/21 10:37:13;;;;;;;29.50;10.57;;;;;;;1.53;100.00;99585.72;5160737;27;20050;-66
2023/01/21 10:39:48;;;;;;;25.23;10.32;;;;;;;1.63;100.00;99585.59;5161030;27;20408;-64
2023/01/21 10:42:40;;;;;;;30.92;11.00;;;;;;;1.91;100.00;99582.16;5160448;27;20056;-64
2023/01/21 10:45:20;;;;;;;68.03;13.60;;;;;;;1.65;100.00;99577.19;5156839;27;20054;-65
2023/01/21 10:47:53;;;;;;;27.52;9.68;;;;;;;1.43;100.00;99602.09;5160883;27;20054;-63
2023/01/21 10:50:39;;;;;;;39.85;11.38;;;;;;;1.44;100.00;99578.63;5160714;27;20046;-63
2023/01/21 10:53:17;;;;;;;26.73;11.43;;;;;;;1.57;100.00;99565.16;5160970;27;20050;-66
2023/01/21 10:56:00;;;;;;;30.35;12.77;;;;;;;1.75;100.00;99552.69;5160450;27;20050;-63
2023/01/21 10:58:29;;;;;;;29.83;10.30;;;;;;;1.56;100.00;99568.13;5160893;27;20122;-64
2023/01/21 11:00:58;;;;;;;29.95;12.57;;;;;;;1.48;100.00;99571.53;5159547;27;20047;-64
2023/01/21 11:03:33;;;;;;;30.25;11.55;;;;;;;1.77;100.00;99561.31;5160161;27;20059;-63
2023/01/21 11:06:05;;;;;;;42.25;12.27;;;;;;;1.76;100.00;99553.47;5160368;27;20051;-64
2023/01/21 11:08:32;;;;;;;27.38;11.02;;;;;;;1.77;100.00;99549.69;5160534;27;20100;-67
2023/01/21 11:10:59;;;;;;;34.72;12.15;;;;;;;1.82;100.00;99558.50;5160660;27;20361;-66
2023/01/21 11:13:26;;;;;;;29.58;13.05;;;;;;;1.77;100.00;99584.84;5160322;27;20050;-67
2023/01/21 11:15:54;;;;;;;42.97;12.65;;;;;;;1.91;100.00;99555.94;5160599;27;20366;-65
2023/01/21 11:18:30;;;;;;;31.63;12.35;;;;;;;1.86;100.00;99572.22;5160281;27;20396;-64
2023/01/21 11:20:59;;;;;;;34.78;14.48;;;;;;;1.78;100.00;99603.44;5160651;27;20289;-66
2023/01/21 11:23:28;;;;;;;35.47;14.32;;;;;;;1.87;100.00;99623.31;5160297;27;20372;-63
2023/01/21 11:26:00;;;;;;;32.03;12.45;;;;;;;1.65;100.00;99637.44;5160028;27;20046;-63
2023/01/21 11:28:29;;;;;;;35.63;14.57;;;;;;;1.76;100.00;99665.09;5160075;27;20281;-67
2023/01/21 11:31:06;;;;;;;37.95;14.98;;;;;;;1.88;100.00;99686.28;5159911;27;20082;-67
2023/01/21 11:33:33;;;;;;;40.92;16.17;;;;;;;1.76;100.00;99700.25;5160234;27;20050;-65
2023/01/21 11:36:10;;;;;;;41.95;16.25;;;;;;;1.82;100.00;99709.09;5160034;27;20050;-66
2023/01/21 11:38:37;;;;;;;32.22;13.55;;;;;;;1.76;100.00;99743.50;5160203;27;20058;-65